sensor_id;sensor_type;location;lat;lon;timestamp;pressure;altitude;pressure_sealevel;temperature;humidity
48077;BME280;33854;57.708;12.008;2023-02-22T00:00:13;98812.38;;;-0.74;100.00
48077;BME280;33854;57.708;12.008;2023-02-22T00:02:50;98745.16;;;-1.07;100.00
48077;BME280;33854;57.708;12.008;2023-02-22T00:05:17;98795.47;;;-0.78;100.00
48077;BME280;33854;57.708;12.008;2023-02-22T00:07:49;98776.69;;;-0.79;100.00
48077;BME280;33854;57.708;12.008;2023-02-22T00:10:15;98698.31;;;-1.10;100.00
48077;BME280;33854;57.708;12.008;2023-02-22T00:12:46;98715.22;;;-0.79;100.00
48077;BME280;33854;57.708;12.008;2023-02-22T00:15:13;98698.25;;;-0.81;100.00
48077;BME280;33854;57.708;12.008;2023-02-22T00:17:39;98636.97;;;-1.12;100.00
48077;BME280;33854;57.708;12.008;2023-02-22T00:20:05;98688.19;;;-0.87;100.00
48077;BME280;33854;57.708;12.008;2023-02-22T00:22:31;98615.94;;;-1.22;100.00
48077;BME280;33854;57.708;12.008;2023-02-22T00:24:57;98639.63;;;-0.90;100.00
48077;BME280;33854;57.708;12.008;2023-02-22T00:27:23;98576.47;;;-0.90;100.00
48077;BME280;33854;57.708;12.008;2023-02-22T00:29:48;98573.06;;;-0.90;100.00
48077;BME280;33854;57.708;12.008;2023-02-22T00:32:14;98551.91;;;-0.95;100.00
48077;BME280;33854;57.708;12.008;2023-02-22T00:34:40;98552.00;;;-0.98;100.00
48077;BME280;33854;57.708;12.008;2023-02-22T00:37:05;98534.13;;;-1.00;100.00
48077;BME280;33854;57.708;12.008;2023-02-22T00:39:31;98504.31;;;-1.01;100.00
48077;BME280;33854;57.708;12.008;2023-02-22T00:41:57;98474.41;;;-1.24;100.00
48077;BME280;33854;57.708;12.008;2023-02-22T00:44:22;98510.41;;;-1.05;100.00
48077;BME280;33854;57.708;12.008;2023-02-22T00:46:48;98486.53;;;-1.05;100.00
48077;BME280;33854;57.708;12.008;2023-02-22T00:49:17;98474.59;;;-1.05;100.00
48077;BME280;33854;57.708;12.008;2023-02-22T00:51:43;98448.94;;;-1.03;100.00
48077;BME280;33854;57.708;12.008;2023-02-22T00:54:09;98440.25;;;-0.99;100.00
48077;BME280;33854;57.708;12.008;2023-02-22T00:56:35;98380.69;;;-1.28;100.00
48077;BME280;33854;57.708;12.008;2023-02-22T00:59:01;98422.44;;;-1.02;100.00
48077;BME280;33854;57.708;12.008;2023-02-22T01:01:27;98427.78;;;-1.08;100.00
48077;BME280;33854;57.708;12.008;2023-02-22T01:03:52;98419.31;;;-1.10;100.00
48077;BME280;33854;57.708;12.008;2023-02-22T01:06:18;98418.47;;;-1.11;100.00
48077;BME280;33854;57.708;12.008;2023-02-22T01:08:46;98420.38;;;-1.16;100.00
48077;BME280;33854;57.708;12.008;2023-02-22T01:11:14;98423.22;;;-1.24;100.00
48077;BME280;33854;57.708;12.008;2023-02-22T01:13:40;98460.44;;;-1.15;100.00
48077;BME280;33854;57.708;12.008;2023-02-22T01:16:06;98436.56;;;-1.16;100.00
48077;BME280;33854;57.708;12.008;2023-02-22T01:18:35;98427.28;;;-1.18;100.00
48077;BME280;33854;57.708;12.008;2023-02-22T01:21:02;98436.56;;;-1.16;100.00
48077;BME280;33854;57.708;12.008;2023-02-22T01:23:27;98441.69;;;-1.16;100.00
48077;BME280;33854;57.708;12.008;2023-02-22T01:25:53;98445.03;;;-1.13;100.00
48077;BME280;33854;57.708;12.008;2023-02-22T01:28:18;98447.66;;;-1.15;100.00
48077;BME280;33854;57.708;12.008;2023-02-22T01:30:46;98443.44;;;-1.18;100.00
48077;BME280;33854;57.708;12.008;2023-02-22T01:33:13;98457.16;;;-1.19;100.00
48077;BME280;33854;57.708;12.008;2023-02-22T01:35:40;98464.75;;;-1.17;100.00
48077;BME280;33854;57.708;12.008;2023-02-22T01:38:07;98479.34;;;-1.19;100.00
48077;BME280;33854;57.708;12.008;2023-02-22T01:40:40;98451.13;;;-1.18;100.00
48077;BME280;33854;57.708;12.008;2023-02-22T01:45:57;98450.31;;;-1.18;100.00
48077;BME280;33854;57.708;12.008;2023-02-22T01:53:28;98429.94;;;-1.46;100.00
48077;BME280;33854;57.708;12.008;2023-02-22T01:55:56;98410.69;;;-1.56;100.00
48077;BME280;33854;57.708;12.008;2023-02-22T01:58:23;98459.97;;;-1.26;100.00
48077;BME280;33854;57.708;12.008;2023-02-22T02:00:50;98394.44;;;-1.55;100.00
48077;BME280;33854;57.708;12.008;2023-02-22T02:03:25;98443.06;;;-1.30;100.00
48077;BME280;33854;57.708;12.008;2023-02-22T02:05:53;98440.44;;;-1.29;100.00
48077;BME280;33854;57.708;12.008;2023-02-22T02:11:05;98425.19;;;-1.32;100.00
48077;BME280;33854;57.708;12.008;2023-02-22T02:13:32;98436.34;;;-1.33;100.00
48077;BME280;33854;57.708;12.008;2023-02-22T02:15:57;98425.34;;;-1.36;100.00
48077;BME280;33854;57.708;12.008;2023-02-22T02:18:23;98427.91;;;-1.36;100.00
48077;BME280;33854;57.708;12.008;2023-02-22T02:40:09;98385.59;;;-1.45;100.00
48077;BME280;33854;57.708;12.008;2023-02-22T02:42:41;98387.38;;;-1.47;100.00
48077;BME280;33854;57.708;12.008;2023-02-22T02:45:14;98379.69;;;-1.47;100.00
48077;BME280;33854;57.708;12.008;2023-02-22T02:47:50;98360.97;;;-1.49;100.00
48077;BME280;33854;57.708;12.008;2023-02-22T02:50:28;98344.00;;;-1.50;100.00
48077;BME280;33854;57.708;12.008;2023-02-22T02:52:58;98337.09;;;-1.48;100.00
48077;BME280;33854;57.708;12.008;2023-02-22T02:55:28;98327.81;;;-1.50;100.00
48077;BME280;33854;57.708;12.008;2023-02-22T02:57:54;98244.25;;;-1.73;100.00
48077;BME280;33854;57.708;12.008;2023-02-22T03:00:23;98251.19;;;-1.77;100.00
48077;BME280;33854;57.708;12.008;2023-02-22T03:03:16;98307.13;;;-1.44;100.00
48077;BME280;33854;57.708;12.008;2023-02-22T03:12:04;98285.91;;;-1.71;100.00
48077;BME280;33854;57.708;12.008;2023-02-22T03:14:46;98315.69;;;-1.45;100.00
48077;BME280;33854;57.708;12.008;2023-02-22T03:22:57;98308.72;;;-1.42;100.00
48077;BME280;33854;57.708;12.008;2023-02-22T03:25:32;98303.53;;;-1.40;100.00
48077;BME280;33854;57.708;12.008;2023-02-22T03:28:03;98309.50;;;-1.40;100.00
48077;BME280;33854;57.708;12.008;2023-02-22T03:30:35;98298.50;;;-1.42;100.00
48077;BME280;33854;57.708;12.008;2023-02-22T03:33:08;98298.44;;;-1.40;100.00
48077;BME280;33854;57.708;12.008;2023-02-22T03:35:41;98290.06;;;-1.44;100.00
48077;BME280;33854;57.708;12.008;2023-02-22T03:38:10;98271.09;;;-1.38;100.00
48077;BME280;33854;57.708;12.008;2023-02-22T03:40:40;98196.53;;;-1.74;100.00
48077;BME280;33854;57.708;12.008;2023-02-22T03:43:17;98249.78;;;-1.39;100.00
48077;BME280;33854;57.708;12.008;2023-02-22T03:45:47;98253.28;;;-1.41;100.00
48077;BME280;33854;57.708;12.008;2023-02-22T03:48:29;98250.72;;;-1.41;100.00
48077;BME280;33854;57.708;12.008;2023-02-22T03:50:56;98244.72;;;-1.40;100.00
48077;BME280;33854;57.708;12.008;2023-02-22T03:53:23;98252.22;;;-1.36;100.00
48077;BME280;33854;57.708;12.008;2023-02-22T03:55:51;98280.38;;;-1.36;100.00
48077;BME280;33854;57.708;12.008;2023-02-22T03:58:20;98243.84;;;-1.62;100.00
48077;BME280;33854;57.708;12.008;2023-02-22T04:00:47;98286.22;;;-1.32;100.00
48077;BME280;33854;57.708;12.008;2023-02-22T04:03:20;98254.72;;;-1.34;100.00
48077;BME280;33854;57.708;12.008;2023-02-22T04:05:46;98261.16;;;-1.24;100.00
48077;BME280;33854;57.708;12.008;2023-02-22T04:08:12;98274.81;;;-1.24;100.00
48077;BME280;33854;57.708;12.008;2023-02-22T04:10:37;98290.81;;;-1.19;100.00
48077;BME280;33854;57.708;12.008;2023-02-22T04:13:03;98324.97;;;-1.20;100.00
48077;BME280;33854;57.708;12.008;2023-02-22T04:15:31;98335.84;;;-1.15;100.00
48077;BME280;33854;57.708;12.008;2023-02-22T04:17:57;98340.81;;;-1.10;100.00
48077;BME280;33854;57.708;12.008;2023-02-22T04:20:23;98331.22;;;-1.05;100.00
48077;BME280;33854;57.708;12.008;2023-02-22T04:22:53;98348.97;;;-1.00;100.00
48077;BME280;33854;57.708;12.008;2023-02-22T04:25:20;98373.56;;;-0.96;100.00
48077;BME280;33854;57.708;12.008;2023-02-22T04:27:49;98283.06;;;-1.40;100.00
48077;BME280;33854;57.708;12.008;2023-02-22T04:30:17;98382.81;;;-0.92;100.00
48077;BME280;33854;57.708;12.008;2023-02-22T04:32:42;98398.06;;;-0.89;100.00
48077;BME280;33854;57.708;12.008;2023-02-22T04:35:08;98409.31;;;-0.93;100.00
48077;BME280;33854;57.708;12.008;2023-02-22T04:37:34;98409.31;;;-0.93;100.00
48077;BME280;33854;57.708;12.008;2023-02-22T04:40:00;98405.75;;;-0.89;100.00
48077;BME280;33854;57.708;12.008;2023-02-22T04:42:26;98356.44;;;-1.18;100.00
48077;BME280;33854;57.708;12.008;2023-02-22T04:44:52;98403.19;;;-0.89;100.00
48077;BME280;33854;57.708;12.008;2023-02-22T04:47:17;98391.38;;;-0.93;100.00
48077;BME280;33854;57.708;12.008;2023-02-22T04:49:43;98406.63;;;-0.90;100.00
48077;BME280;33854;57.708;12.008;2023-02-22T04:52:10;98412.72;;;-0.93;100.00
48077;BME280;33854;57.708;12.008;2023-02-22T04:54:35;98409.31;;;-0.93;100.00
48077;BME280;33854;57.708;12.008;2023-02-22T04:57:01;98434.97;;;-0.95;100.00
48077;BME280;33854;57.708;12.008;2023-02-22T04:59:27;98428.84;;;-0.91;100.00
48077;BME280;33854;57.708;12.008;2023-02-22T05:01:52;98388.59;;;-1.10;100.00
48077;BME280;33854;57.708;12.008;2023-02-22T05:04:18;98408.56;;;-0.97;100.00
48077;BME280;33854;57.708;12.008;2023-02-22T05:06:43;98384.59;;;-1.18;100.00
48077;BME280;33854;57.708;12.008;2023-02-22T05:09:09;98435.00;;;-0.96;100.00
48077;BME280;33854;57.708;12.008;2023-02-22T05:11:34;98410.56;;;-1.03;100.00
48077;BME280;33854;57.708;12.008;2023-02-22T05:13:59;98400.06;;;-0.97;100.00
48077;BME280;33854;57.708;12.008;2023-02-22T05:16:25;98387.16;;;-0.94;100.00
48077;BME280;33854;57.708;12.008;2023-02-22T05:18:51;98300.97;;;-1.17;100.00
48077;BME280;33854;57.708;12.008;2023-02-22T05:21:16;98301.81;;;-1.17;100.00
48077;BME280;33854;57.708;12.008;2023-02-22T05:23:41;98368.16;;;-0.89;100.00
48077;BME280;33854;57.708;12.008;2023-02-22T05:26:07;98319.78;;;-1.18;100.00
48077;BME280;33854;57.708;12.008;2023-02-22T05:28:34;98356.28;;;-0.90;100.00
48077;BME280;33854;57.708;12.008;2023-02-22T05:31:00;98284.63;;;-1.13;100.00
48077;BME280;33854;57.708;12.008;2023-02-22T05:33:25;98332.28;;;-0.87;100.00
48077;BME280;33854;57.708;12.008;2023-02-22T05:35:50;98324.69;;;-0.90;100.00
48077;BME280;33854;57.708;12.008;2023-02-22T05:38:16;98311.81;;;-0.89;100.00
48077;BME280;33854;57.708;12.008;2023-02-22T05:40:42;98278.50;;;-0.87;100.00
48077;BME280;33854;57.708;12.008;2023-02-22T05:43:08;98250.88;;;-0.79;100.00
48077;BME280;33854;57.708;12.008;2023-02-22T05:45:33;98259.44;;;-0.80;100.00
48077;BME280;33854;57.708;12.008;2023-02-22T05:48:01;98249.38;;;-0.85;100.00
48077;BME280;33854;57.708;12.008;2023-02-22T05:50:26;98240.69;;;-0.81;100.00
48077;BME280;33854;57.708;12.008;2023-02-22T05:52:53;98250.03;;;-0.80;100.00
48077;BME280;33854;57.708;12.008;2023-02-22T05:55:21;98215.13;;;-0.82;100.00
48077;BME280;33854;57.708;12.008;2023-02-22T05:57:47;98193.81;;;-0.83;100.00
48077;BME280;33854;57.708;12.008;2023-02-22T06:00:18;98196.56;;;-0.87;100.00
48077;BME280;33854;57.708;12.008;2023-02-22T06:02:44;98172.66;;;-0.86;100.00
48077;BME280;33854;57.708;12.008;2023-02-22T06:05:10;98135.16;;;-0.89;100.00
48077;BME280;33854;57.708;12.008;2023-02-22T06:07:35;98101.06;;;-0.89;100.00
48077;BME280;33854;57.708;12.008;2023-02-22T06:10:01;98043.97;;;-1.11;100.00
48077;BME280;33854;57.708;12.008;2023-02-22T06:12:26;98060.13;;;-0.89;100.00
48077;BME280;33854;57.708;12.008;2023-02-22T06:14:51;98040.66;;;-0.93;100.00
48077;BME280;33854;57.708;12.008;2023-02-22T06:17:17;98012.34;;;-0.90;100.00
48077;BME280;33854;57.708;12.008;2023-02-22T06:19:42;97982.66;;;-0.94;100.00
48077;BME280;33854;57.708;12.008;2023-02-22T06:22:15;97926.31;;;-1.13;100.00
48077;BME280;33854;57.708;12.008;2023-02-22T06:24:40;97921.28;;;-0.96;100.00
48077;BME280;33854;57.708;12.008;2023-02-22T06:27:06;97895.56;;;-0.93;100.00
48077;BME280;33854;57.708;12.008;2023-02-22T06:29:32;97877.44;;;-0.88;100.00
48077;BME280;33854;57.708;12.008;2023-02-22T06:31:57;97874.88;;;-0.88;100.00
48077;BME280;33854;57.708;12.008;2023-02-22T06:34:23;97863.88;;;-0.90;100.00
48077;BME280;33854;57.708;12.008;2023-02-22T06:36:48;97835.09;;;-0.95;100.00
48077;BME280;33854;57.708;12.008;2023-02-22T06:39:15;97807.41;;;-0.87;100.00
48077;BME280;33854;57.708;12.008;2023-02-22T06:41:41;97808.38;;;-0.90;100.00
48077;BME280;33854;57.708;12.008;2023-02-22T06:44:08;97748.22;;;-1.17;100.00
48077;BME280;33854;57.708;12.008;2023-02-22T06:46:35;97734.94;;;-1.06;100.00
48077;BME280;33854;57.708;12.008;2023-02-22T06:49:00;97792.22;;;-0.73;100.00
48077;BME280;33854;57.708;12.008;2023-02-22T06:51:26;97782.97;;;-0.76;100.00
48077;BME280;33854;57.708;12.008;2023-02-22T06:53:53;97825.53;;;-0.73;100.00
48077;BME280;33854;57.708;12.008;2023-02-22T06:56:19;97841.72;;;-0.73;100.00
48077;BME280;33854;57.708;12.008;2023-02-22T06:58:44;97827.19;;;-0.72;100.00
48077;BME280;33854;57.708;12.008;2023-02-22T07:01:10;97788.84;;;-0.74;100.00
48077;BME280;33854;57.708;12.008;2023-02-22T07:03:36;97803.06;;;-0.68;100.00
48077;BME280;33854;57.708;12.008;2023-02-22T07:06:01;97746.13;;;-0.90;100.00
48077;BME280;33854;57.708;12.008;2023-02-22T07:08:28;97805.59;;;-0.67;100.00
48077;BME280;33854;57.708;12.008;2023-02-22T07:10:54;97787.50;;;-0.64;100.00
48077;BME280;33854;57.708;12.008;2023-02-22T07:13:19;97729.56;;;-0.83;100.00
48077;BME280;33854;57.708;12.008;2023-02-22T07:15:45;97761.44;;;-0.54;100.00
48077;BME280;33854;57.708;12.008;2023-02-22T07:18:11;97761.53;;;-0.56;100.00
48077;BME280;33854;57.708;12.008;2023-02-22T07:20:37;97780.13;;;-0.52;100.00
48077;BME280;33854;57.708;12.008;2023-02-22T07:23:03;97771.38;;;-0.48;100.00
48077;BME280;33854;57.708;12.008;2023-02-22T07:25:29;97736.88;;;-0.59;100.00
48077;BME280;33854;57.708;12.008;2023-02-22T07:27:54;97767.34;;;-0.35;100.00
48077;BME280;33854;57.708;12.008;2023-02-22T07:30:22;97766.78;;;-0.25;100.00
48077;BME280;33854;57.708;12.008;2023-02-22T07:32:55;97798.44;;;-0.26;100.00
48077;BME280;33854;57.708;12.008;2023-02-22T07:37:52;97806.75;;;-0.21;100.00
48077;BME280;33854;57.708;12.008;2023-02-22T07:40:18;97793.16;;;-0.06;100.00
48077;BME280;33854;57.708;12.008;2023-02-22T07:45:18;97861.34;;;-0.02;100.00
48077;BME280;33854;57.708;12.008;2023-02-22T07:47:47;97861.78;;;0.07;100.00
48077;BME280;33854;57.708;12.008;2023-02-22T07:50:14;97887.38;;;0.08;100.00
48077;BME280;33854;57.708;12.008;2023-02-22T07:52:44;97902.38;;;0.16;100.00
48077;BME280;33854;57.708;12.008;2023-02-22T07:55:09;97854.53;;;-0.03;100.00
48077;BME280;33854;57.708;12.008;2023-02-22T07:57:35;97874.25;;;-0.03;100.00
48077;BME280;33854;57.708;12.008;2023-02-22T08:00:00;97912.38;;;0.20;100.00
48077;BME280;33854;57.708;12.008;2023-02-22T08:02:26;97908.88;;;0.23;100.00
48077;BME280;33854;57.708;12.008;2023-02-22T08:04:51;97877.59;;;0.32;100.00
48077;BME280;33854;57.708;12.008;2023-02-22T08:07:17;97883.50;;;0.34;100.00
48077;BME280;33854;57.708;12.008;2023-02-22T08:09:42;97847.81;;;0.12;100.00
48077;BME280;33854;57.708;12.008;2023-02-22T08:12:07;97853.34;;;0.22;100.00
48077;BME280;33854;57.708;12.008;2023-02-22T08:14:33;97893.75;;;0.51;100.00
48077;BME280;33854;57.708;12.008;2023-02-22T08:16:58;97879.53;;;0.28;100.00
48077;BME280;33854;57.708;12.008;2023-02-22T08:19:24;97915.78;;;0.55;100.00
48077;BME280;33854;57.708;12.008;2023-02-22T08:21:49;97893.22;;;0.44;100.00
48077;BME280;33854;57.708;12.008;2023-02-22T08:24:14;97905.03;;;0.64;100.00
48077;BME280;33854;57.708;12.008;2023-02-22T08:26:44;97893.31;;;0.76;100.00
48077;BME280;33854;57.708;12.008;2023-02-22T08:29:10;97917.94;;;0.80;100.00
48077;BME280;33854;57.708;12.008;2023-02-22T08:31:38;97921.94;;;0.85;100.00
48077;BME280;33854;57.708;12.008;2023-02-22T08:34:03;97961.19;;;0.87;100.00
48077;BME280;33854;57.708;12.008;2023-02-22T08:36:28;97992.28;;;0.98;100.00
48077;BME280;33854;57.708;12.008;2023-02-22T08:38:54;98003.47;;;0.97;100.00
48077;BME280;33854;57.708;12.008;2023-02-22T08:41:19;97996.22;;;1.05;100.00
48077;BME280;33854;57.708;12.008;2023-02-22T08:43:45;97988.09;;;1.13;100.00
48077;BME280;33854;57.708;12.008;2023-02-22T08:46:10;97997.47;;;1.14;100.00
48077;BME280;33854;57.708;12.008;2023-02-22T08:48:36;98007.03;;;1.28;100.00
48077;BME280;33854;57.708;12.008;2023-02-22T08:51:01;98028.94;;;1.35;100.00
48077;BME280;33854;57.708;12.008;2023-02-22T08:53:27;98067.97;;;1.41;100.00
48077;BME280;33854;57.708;12.008;2023-02-22T08:55:52;98066.03;;;1.46;100.00
48077;BME280;33854;57.708;12.008;2023-02-22T08:58:18;98063.94;;;1.53;100.00
48077;BME280;33854;57.708;12.008;2023-02-22T09:00:43;98130.63;;;1.56;100.00
48077;BME280;33854;57.708;12.008;2023-02-22T09:03:11;98131.69;;;1.69;100.00
48077;BME280;33854;57.708;12.008;2023-02-22T09:05:40;98155.84;;;1.82;100.00
48077;BME280;33854;57.708;12.008;2023-02-22T09:08:06;98206.97;;;1.71;100.00
48077;BME280;33854;57.708;12.008;2023-02-22T09:10:32;98250.28;;;1.79;100.00
48077;BME280;33854;57.708;12.008;2023-02-22T09:12:58;98248.66;;;1.78;100.00
48077;BME280;33854;57.708;12.008;2023-02-22T09:15:25;98195.13;;;1.68;100.00
48077;BME280;33854;57.708;12.008;2023-02-22T09:17:51;98233.41;;;1.90;100.00
48077;BME280;33854;57.708;12.008;2023-02-22T09:20:19;98224.69;;;2.10;100.00
48077;BME280;33854;57.708;12.008;2023-02-22T09:22:45;98261.81;;;2.21;100.00
48077;BME280;33854;57.708;12.008;2023-02-22T09:25:11;98304.13;;;2.16;100.00
48077;BME280;33854;57.708;12.008;2023-02-22T09:27:37;98288.63;;;2.17;100.00
48077;BME280;33854;57.708;12.008;2023-02-22T09:30:05;98290.06;;;2.23;100.00
48077;BME280;33854;57.708;12.008;2023-02-22T09:32:30;98290.28;;;2.18;100.00
48077;BME280;33854;57.708;12.008;2023-02-22T09:34:56;98284.66;;;2.27;100.00
48077;BME280;33854;57.708;12.008;2023-02-22T09:37:21;98300.94;;;2.28;100.00
48077;BME280;33854;57.708;12.008;2023-02-22T09:39:47;98286.19;;;2.32;100.00
48077;BME280;33854;57.708;12.008;2023-02-22T09:42:34;98305.38;;;2.42;100.00
48077;BME280;33854;57.708;12.008;2023-02-22T09:45:14;98304.22;;;2.14;100.00
48077;BME280;33854;57.708;12.008;2023-02-22T09:47:46;98325.44;;;2.52;100.00
48077;BME280;33854;57.708;12.008;2023-02-22T09:50:21;98323.63;;;2.70;100.00
48077;BME280;33854;57.708;12.008;2023-02-22T09:55:58;98381.41;;;2.81;100.00
48077;BME280;33854;57.708;12.008;2023-02-22T09:58:32;98407.69;;;2.88;100.00
48077;BME280;33854;57.708;12.008;2023-02-22T10:04:03;98425.41;;;2.94;100.00
48077;BME280;33854;57.708;12.008;2023-02-22T10:06:29;98440.19;;;2.91;100.00
48077;BME280;33854;57.708;12.008;2023-02-22T10:09:00;98415.88;;;2.79;100.00
48077;BME280;33854;57.708;12.008;2023-02-22T10:12:32;98394.22;;;2.83;100.00
48077;BME280;33854;57.708;12.008;2023-02-22T10:17:35;98413.88;;;3.01;100.00
48077;BME280;33854;57.708;12.008;2023-02-22T10:23:48;98370.78;;;2.87;100.00
48077;BME280;33854;57.708;12.008;2023-02-22T10:25:51;98351.91;;;2.87;100.00
48077;BME280;33854;57.708;12.008;2023-02-22T10:28:23;98336.13;;;2.93;100.00
48077;BME280;33854;57.708;12.008;2023-02-22T10:31:02;98354.78;;;2.98;100.00
48077;BME280;33854;57.708;12.008;2023-02-22T10:33:31;98371.47;;;2.91;100.00
48077;BME280;33854;57.708;12.008;2023-02-22T10:35:58;98325.44;;;3.01;100.00
48077;BME280;33854;57.708;12.008;2023-02-22T10:38:34;98341.75;;;3.01;100.00
48077;BME280;33854;57.708;12.008;2023-02-22T10:43:36;98371.56;;;3.05;100.00
48077;BME280;33854;57.708;12.008;2023-02-22T10:46:04;98364.28;;;3.29;100.00
48077;BME280;33854;57.708;12.008;2023-02-22T10:48:33;98405.69;;;3.26;100.00
48077;BME280;33854;57.708;12.008;2023-02-22T10:51:01;98414.09;;;3.29;100.00
48077;BME280;33854;57.708;12.008;2023-02-22T10:53:28;98408.53;;;3.53;100.00
48077;BME280;33854;57.708;12.008;2023-02-22T10:56:15;98465.34;;;3.51;100.00
48077;BME280;33854;57.708;12.008;2023-02-22T11:01:26;98480.66;;;3.70;100.00
48077;BME280;33854;57.708;12.008;2023-02-22T11:06:31;98475.91;;;3.62;100.00
48077;BME280;33854;57.708;12.008;2023-02-22T11:09:10;98471.00;;;3.58;100.00
48077;BME280;33854;57.708;12.008;2023-02-22T11:11:38;98430.56;;;3.58;100.00
48077;BME280;33854;57.708;12.008;2023-02-22T11:14:04;98441.31;;;3.66;100.00
48077;BME280;33854;57.708;12.008;2023-02-22T11:19:07;98525.84;;;4.08;100.00
48077;BME280;33854;57.708;12.008;2023-02-22T11:21:35;98564.56;;;4.08;100.00
48077;BME280;33854;57.708;12.008;2023-02-22T11:24:09;98575.56;;;3.96;100.00
48077;BME280;33854;57.708;12.008;2023-02-22T11:26:44;98533.19;;;4.00;100.00
48077;BME280;33854;57.708;12.008;2023-02-22T11:29:31;98532.53;;;4.12;100.00
48077;BME280;33854;57.708;12.008;2023-02-22T11:32:01;98556.34;;;4.01;100.00
48077;BME280;33854;57.708;12.008;2023-02-22T11:34:39;98572.91;;;4.13;100.00
48077;BME280;33854;57.708;12.008;2023-02-22T11:37:34;98588.72;;;4.23;100.00
48077;BME280;33854;57.708;12.008;2023-02-22T11:40:05;98595.78;;;4.19;100.00
48077;BME280;33854;57.708;12.008;2023-02-22T11:42:31;98566.16;;;3.95;100.00
48077;BME280;33854;57.708;12.008;2023-02-22T11:47:57;98565.97;;;4.45;100.00
48077;BME280;33854;57.708;12.008;2023-02-22T11:56:00;98592.75;;;4.13;100.00
48077;BME280;33854;57.708;12.008;2023-02-22T11:58:40;98565.00;;;4.32;100.00
48077;BME280;33854;57.708;12.008;2023-02-22T12:01:21;98570.56;;;4.55;100.00
48077;BME280;33854;57.708;12.008;2023-02-22T12:09:14;98623.78;;;4.42;100.00
48077;BME280;33854;57.708;12.008;2023-02-22T12:12:11;98609.88;;;4.60;100.00
48077;BME280;33854;57.708;12.008;2023-02-22T12:17:34;98702.22;;;4.73;100.00
48077;BME280;33854;57.708;12.008;2023-02-22T12:22:38;98752.41;;;5.15;100.00
48077;BME280;33854;57.708;12.008;2023-02-22T12:27:45;98885.97;;;5.48;100.00
48077;BME280;33854;57.708;12.008;2023-02-22T12:30:28;98979.81;;;5.34;100.00
48077;BME280;33854;57.708;12.008;2023-02-22T12:33:01;99004.03;;;5.33;100.00
48077;BME280;33854;57.708;12.008;2023-02-22T12:35:35;99007.72;;;5.45;100.00
48077;BME280;33854;57.708;12.008;2023-02-22T12:43:09;99063.84;;;5.10;100.00
48077;BME280;33854;57.708;12.008;2023-02-22T12:48:24;99049.25;;;5.09;100.00
48077;BME280;33854;57.708;12.008;2023-02-22T12:50:58;99060.31;;;5.11;100.00
48077;BME280;33854;57.708;12.008;2023-02-22T12:53:34;99050.75;;;5.30;100.00
48077;BME280;33854;57.708;12.008;2023-02-22T12:56:24;99100.72;;;5.48;100.00
48077;BME280;33854;57.708;12.008;2023-02-22T12:59:04;99139.19;;;5.54;100.00
48077;BME280;33854;57.708;12.008;2023-02-22T13:01:37;99156.00;;;5.80;100.00
48077;BME280;33854;57.708;12.008;2023-02-22T13:04:04;99236.25;;;6.14;100.00
48077;BME280;33854;57.708;12.008;2023-02-22T13:07:04;99298.91;;;6.20;100.00
48077;BME280;33854;57.708;12.008;2023-02-22T13:09:57;99352.16;;;5.92;100.00
48077;BME280;33854;57.708;12.008;2023-02-22T13:16:02;99320.66;;;5.48;100.00
48077;BME280;33854;57.708;12.008;2023-02-22T13:18:48;99280.66;;;5.36;100.00
48077;BME280;33854;57.708;12.008;2023-02-22T13:21:30;99266.72;;;5.03;100.00
48077;BME280;33854;57.708;12.008;2023-02-22T13:24:07;99174.22;;;4.91;100.00
48077;BME280;33854;57.708;12.008;2023-02-22T13:26:50;99156.69;;;4.97;100.00
48077;BME280;33854;57.708;12.008;2023-02-22T13:39:49;99066.03;;;4.66;100.00
48077;BME280;33854;57.708;12.008;2023-02-22T13:53:56;98923.75;;;4.69;100.00
48077;BME280;33854;57.708;12.008;2023-02-22T13:56:01;98961.97;;;4.63;100.00
48077;BME280;33854;57.708;12.008;2023-02-22T13:58:26;98887.06;;;4.45;100.00
48077;BME280;33854;57.708;12.008;2023-02-22T14:00:57;98922.31;;;4.64;100.00
48077;BME280;33854;57.708;12.008;2023-02-22T14:06:04;98938.44;;;4.69;100.00
48077;BME280;33854;57.708;12.008;2023-02-22T14:10:57;98896.66;;;4.60;100.00
48077;BME280;33854;57.708;12.008;2023-02-22T14:13:27;98918.03;;;4.80;100.00
48077;BME280;33854;57.708;12.008;2023-02-22T14:18:23;98917.53;;;4.73;100.00
48077;BME280;33854;57.708;12.008;2023-02-22T14:21:27;98875.50;;;4.70;100.00
48077;BME280;33854;57.708;12.008;2023-02-22T14:23:54;98871.78;;;4.75;100.00
48077;BME280;33854;57.708;12.008;2023-02-22T14:26:30;98858.69;;;4.78;100.00
48077;BME280;33854;57.708;12.008;2023-02-22T14:29:00;98881.06;;;4.79;100.00
48077;BME280;33854;57.708;12.008;2023-02-22T14:31:28;98878.94;;;4.70;100.00
48077;BME280;33854;57.708;12.008;2023-02-22T14:34:04;98896.50;;;4.64;100.00
48077;BME280;33854;57.708;12.008;2023-02-22T14:36:53;98849.59;;;4.54;100.00
48077;BME280;33854;57.708;12.008;2023-02-22T14:39:44;98841.03;;;4.53;100.00
48077;BME280;33854;57.708;12.008;2023-02-22T14:50:13;98786.47;;;4.27;100.00
48077;BME280;33854;57.708;12.008;2023-02-22T14:52:43;98749.38;;;4.28;100.00
48077;BME280;33854;57.708;12.008;2023-02-22T14:55:22;98725.72;;;4.20;100.00
48077;BME280;33854;57.708;12.008;2023-02-22T14:57:57;98690.72;;;3.98;100.00
48077;BME280;33854;57.708;12.008;2023-02-22T15:00:35;98736.72;;;4.23;100.00
48077;BME280;33854;57.708;12.008;2023-02-22T15:03:01;98686.94;;;4.21;100.00
48077;BME280;33854;57.708;12.008;2023-02-22T15:05:34;98656.84;;;4.20;100.00
48077;BME280;33854;57.708;12.008;2023-02-22T15:08:06;98666.06;;;4.09;100.00
48077;BME280;33854;57.708;12.008;2023-02-22T15:13:05;98639.59;;;4.05;100.00
48077;BME280;33854;57.708;12.008;2023-02-22T15:15:43;98642.66;;;3.96;100.00
48077;BME280;33854;57.708;12.008;2023-02-22T15:18:50;98604.72;;;3.98;100.00